createdAt,value
2023-12-09T00:01:42.789Z,70.69
2023-12-09T00:04:10.055Z,70.55
2023-12-09T00:06:37.171Z,70.70
2023-12-09T00:09:04.666Z,70.70
2023-12-09T00:11:31.405Z,71.26
2023-12-09T00:14:04.845Z,70.90
2023-12-09T00:16:32.090Z,70.91
2023-12-09T00:19:00.742Z,71.28
2023-12-09T00:21:28.237Z,71.25
2023-12-09T00:23:54.880Z,71.25
2023-12-09T00:26:21.522Z,71.55
2023-12-09T00:28:48.105Z,71.43
2023-12-09T00:31:14.727Z,71.65
2023-12-09T00:33:42.015Z,71.94
2023-12-09T00:36:09.192Z,72.50
2023-12-09T00:38:35.845Z,72.02
2023-12-09T00:41:02.618Z,71.81
2023-12-09T00:43:29.214Z,72.13
2023-12-09T00:45:55.742Z,72.67
2023-12-09T00:48:22.473Z,72.62
2023-12-09T00:50:49.202Z,71.94
2023-12-09T00:53:15.831Z,72.43
2023-12-09T00:55:42.424Z,72.41
2023-12-09T00:58:08.950Z,72.29
2023-12-09T01:00:35.597Z,72.28
2023-12-09T01:03:02.322Z,72.32
2023-12-09T01:05:28.951Z,72.87
2023-12-09T01:07:55.532Z,72.48
2023-12-09T01:10:22.100Z,72.63
2023-12-09T01:12:48.743Z,72.63
2023-12-09T01:15:16.464Z,72.13
2023-12-09T01:17:43.031Z,72.85
2023-12-09T01:20:10.282Z,72.92
2023-12-09T01:22:36.817Z,72.74
2023-12-09T01:25:03.770Z,72.61
2023-12-09T01:27:30.399Z,72.47
2023-12-09T01:29:57.001Z,72.47
2023-12-09T01:32:23.616Z,72.62
2023-12-09T01:34:50.258Z,72.04
2023-12-09T01:37:16.834Z,72.71
2023-12-09T01:39:43.468Z,72.57
2023-12-09T01:42:10.860Z,72.70
2023-12-09T01:44:37.499Z,72.65
2023-12-09T01:47:04.628Z,72.08
2023-12-09T01:49:31.694Z,72.36
2023-12-09T01:52:00.485Z,72.44
2023-12-09T01:54:28.434Z,72.50
2023-12-09T01:56:57.222Z,72.39
2023-12-09T01:59:24.326Z,72.84
2023-12-09T02:01:53.008Z,72.14
2023-12-09T02:04:20.964Z,72.44
2023-12-09T02:06:47.668Z,72.10
2023-12-09T02:09:14.735Z,72.72
2023-12-09T02:11:41.364Z,72.31
2023-12-09T02:14:33.926Z,72.20
2023-12-09T02:17:16.955Z,71.84
2023-12-09T02:19:43.832Z,72.46
2023-12-09T02:22:10.919Z,72.17
2023-12-09T02:24:37.812Z,72.06
2023-12-09T02:27:11.167Z,72.42
2023-12-09T02:30:08.674Z,72.36
2023-12-09T02:32:36.281Z,72.44
2023-12-09T02:35:04.526Z,72.28
2023-12-09T02:37:32.981Z,72.48
2023-12-09T02:40:01.867Z,72.78
2023-12-09T02:42:28.946Z,73.22
2023-12-09T02:44:57.429Z,73.06
2023-12-09T02:47:24.062Z,73.11
2023-12-09T02:49:50.895Z,73.53
2023-12-09T02:52:17.634Z,72.93
2023-12-09T02:54:44.242Z,73.31
2023-12-09T02:57:10.905Z,73.27
2023-12-09T02:59:37.608Z,73.24
2023-12-09T03:02:04.387Z,73.40
2023-12-09T03:04:32.383Z,73.05
2023-12-09T03:06:59.258Z,73.61
2023-12-09T03:09:25.884Z,73.62
2023-12-09T03:11:52.521Z,73.01
2023-12-09T03:14:19.232Z,73.41
2023-12-09T03:16:45.771Z,73.30
2023-12-09T03:19:12.459Z,72.81
2023-12-09T03:21:39.121Z,73.42
2023-12-09T03:24:05.948Z,73.22
2023-12-09T03:26:32.594Z,73.57
2023-12-09T03:28:59.107Z,73.71
2023-12-09T03:31:25.627Z,73.54
2023-12-09T03:33:52.365Z,73.18
2023-12-09T03:36:19.136Z,73.16
2023-12-09T03:38:45.810Z,73.00
2023-12-09T03:41:12.398Z,72.87
2023-12-09T03:43:39.333Z,72.84
2023-12-09T03:46:06.089Z,73.21
2023-12-09T03:48:33.199Z,73.34
2023-12-09T03:50:59.958Z,73.37
2023-12-09T03:53:26.599Z,73.36
2023-12-09T03:55:53.218Z,72.95
2023-12-09T03:58:21.792Z,73.23
2023-12-09T04:00:48.602Z,73.64
2023-12-09T04:03:15.884Z,73.40
2023-12-09T04:05:42.747Z,72.99
2023-12-09T04:08:09.818Z,73.47
2023-12-09T04:10:36.401Z,73.64
2023-12-09T04:13:02.973Z,73.68
2023-12-09T04:15:29.600Z,74.05
2023-12-09T04:17:56.272Z,74.37
2023-12-09T04:20:22.983Z,73.98
2023-12-09T04:22:49.631Z,73.85
2023-12-09T04:25:16.299Z,73.76
2023-12-09T04:27:43.131Z,73.83
2023-12-09T04:30:10.515Z,73.92
2023-12-09T04:32:37.145Z,73.76
2023-12-09T04:35:04.694Z,73.46
2023-12-09T04:37:31.347Z,73.61
2023-12-09T04:39:57.951Z,73.63
2023-12-09T04:42:24.977Z,73.29
2023-12-09T04:44:51.814Z,73.62
2023-12-09T04:47:18.659Z,73.79
2023-12-09T04:49:45.330Z,73.86
2023-12-09T04:52:12.033Z,74.56
2023-12-09T04:54:38.644Z,74.37
2023-12-09T04:57:05.688Z,74.87
2023-12-09T04:59:32.356Z,74.83
2023-12-09T05:01:58.957Z,74.88
2023-12-09T05:04:25.695Z,74.21
2023-12-09T05:06:52.410Z,74.05
2023-12-09T05:09:19.071Z,74.15
2023-12-09T05:11:45.627Z,74.67
2023-12-09T05:14:12.262Z,75.10
2023-12-09T05:16:38.845Z,75.17
2023-12-09T05:19:06.910Z,74.84
2023-12-09T05:21:35.849Z,74.64
2023-12-09T05:24:04.731Z,74.51
2023-12-09T05:26:31.629Z,74.40
2023-12-09T05:28:58.596Z,74.20
2023-12-09T05:31:25.430Z,74.16
2023-12-09T05:33:52.308Z,74.53
2023-12-09T05:36:18.972Z,74.70
2023-12-09T05:38:45.594Z,74.61
2023-12-09T05:41:12.476Z,74.69
2023-12-09T05:43:39.825Z,74.49
2023-12-09T05:46:06.633Z,74.17
2023-12-09T05:48:34.817Z,74.01
2023-12-09T05:51:02.318Z,73.75
2023-12-09T05:53:28.949Z,73.38
2023-12-09T05:55:55.492Z,73.76
2023-12-09T05:58:22.091Z,73.65
2023-12-09T06:00:48.989Z,73.41
2023-12-09T06:03:15.773Z,73.54
2023-12-09T06:05:42.453Z,73.66
2023-12-09T06:08:09.176Z,73.03
2023-12-09T06:10:35.714Z,73.45
2023-12-09T06:13:02.376Z,73.17
2023-12-09T06:15:28.924Z,73.80
2023-12-09T06:17:55.630Z,73.70
2023-12-09T06:20:22.610Z,73.83
2023-12-09T06:22:49.332Z,73.45
2023-12-09T06:25:15.967Z,73.08
2023-12-09T06:27:42.619Z,72.90
2023-12-09T06:30:11.059Z,72.73
2023-12-09T06:32:37.792Z,72.99
2023-12-09T06:35:04.766Z,72.63
2023-12-09T06:37:31.395Z,72.81
2023-12-09T06:39:57.956Z,73.32
2023-12-09T06:42:24.772Z,73.39
2023-12-09T06:44:51.526Z,73.50
2023-12-09T06:47:18.165Z,73.33
2023-12-09T06:49:44.856Z,73.05
2023-12-09T06:52:11.557Z,72.88
2023-12-09T06:54:38.562Z,72.73
2023-12-09T06:57:05.539Z,72.66
2023-12-09T06:59:32.141Z,72.55
2023-12-09T07:01:59.071Z,72.12
2023-12-09T07:04:25.869Z,72.45
2023-12-09T07:06:52.605Z,71.76
2023-12-09T07:09:19.270Z,72.54
2023-12-09T07:11:45.909Z,72.69
2023-12-09T07:14:14.879Z,72.88
2023-12-09T07:16:41.545Z,72.18
2023-12-09T07:19:08.380Z,72.47
2023-12-09T07:21:35.245Z,72.54
2023-12-09T07:24:02.330Z,72.17
2023-12-09T07:26:29.336Z,72.03
2023-12-09T07:28:56.029Z,72.27
2023-12-09T07:31:22.686Z,72.11
2023-12-09T07:33:49.772Z,71.98
2023-12-09T07:36:16.515Z,72.15
2023-12-09T07:38:43.243Z,72.03
2023-12-09T07:41:09.838Z,70.22
2023-12-09T07:43:39.454Z,71.32
2023-12-09T07:46:07.877Z,70.72
2023-12-09T07:48:34.713Z,70.97
2023-12-09T07:51:01.477Z,70.75
2023-12-09T07:53:28.039Z,70.36
2023-12-09T07:55:54.596Z,70.15
2023-12-09T07:58:21.449Z,69.17
2023-12-09T08:00:48.796Z,69.40
2023-12-09T08:03:15.526Z,68.97
2023-12-09T08:05:44.309Z,68.23
2023-12-09T08:08:12.288Z,67.78
2023-12-09T08:10:38.864Z,68.18
2023-12-09T08:13:06.223Z,68.62
2023-12-09T08:15:32.807Z,69.31
2023-12-09T08:17:59.598Z,68.96
2023-12-09T08:20:26.360Z,69.17
2023-12-09T08:22:53.166Z,68.89
2023-12-09T08:25:19.742Z,69.08
2023-12-09T08:27:46.303Z,69.30
2023-12-09T08:30:13.577Z,70.17
2023-12-09T08:32:42.492Z,70.56
2023-12-09T08:35:10.895Z,70.89
2023-12-09T08:37:41.559Z,71.24
2023-12-09T08:40:12.611Z,71.42
2023-12-09T08:42:43.635Z,71.33
2023-12-09T08:45:17.306Z,71.52
2023-12-09T08:47:45.693Z,70.99
2023-12-09T08:50:22.056Z,70.63
2023-12-09T08:52:52.342Z,70.12
2023-12-09T08:55:19.347Z,70.02
2023-12-09T08:57:46.806Z,70.86
2023-12-09T09:00:15.440Z,70.45
2023-12-09T09:02:42.244Z,70.57
2023-12-09T09:05:09.811Z,70.38
2023-12-09T09:07:39.983Z,70.13
2023-12-09T09:10:08.018Z,70.22
2023-12-09T09:12:34.670Z,70.67
2023-12-09T09:15:04.610Z,69.85
2023-12-09T09:17:33.614Z,69.65
2023-12-09T09:20:00.326Z,70.26
2023-12-09T09:22:27.209Z,69.13
2023-12-09T09:24:54.014Z,69.09
2023-12-09T09:27:20.665Z,69.28
2023-12-09T09:29:47.245Z,68.48
2023-12-09T09:32:13.833Z,68.08
2023-12-09T09:34:42.535Z,67.37
2023-12-09T09:37:09.755Z,66.86
2023-12-09T09:39:36.577Z,66.80
2023-12-09T09:42:27.046Z,66.46
2023-12-09T09:45:09.695Z,66.82
2023-12-09T09:47:41.244Z,66.94
2023-12-09T09:50:11.929Z,66.66
2023-12-09T09:52:41.794Z,67.09
2023-12-09T09:55:10.025Z,66.81
2023-12-09T09:57:36.945Z,68.30
2023-12-09T10:00:13.805Z,69.53
2023-12-09T10:02:46.572Z,70.27
2023-12-09T10:05:15.688Z,70.78
2023-12-09T10:07:43.232Z,70.99
2023-12-09T10:10:10.746Z,71.36
2023-12-09T10:12:37.885Z,71.31
2023-12-09T10:15:05.777Z,71.01
2023-12-09T10:17:32.913Z,71.07
2023-12-09T10:20:00.200Z,70.88
2023-12-09T10:22:28.303Z,70.76
2023-12-09T10:24:55.973Z,70.76
2023-12-09T10:27:23.962Z,71.86
2023-12-09T10:29:55.433Z,72.08
2023-12-09T10:32:22.121Z,72.44
2023-12-09T10:34:50.248Z,72.65
2023-12-09T10:37:18.188Z,72.04
2023-12-09T10:39:46.105Z,71.96
2023-12-09T10:42:13.205Z,72.81
2023-12-09T10:44:40.677Z,73.02
2023-12-09T10:47:08.281Z,73.56
2023-12-09T10:49:35.424Z,72.49
2023-12-09T10:52:02.509Z,72.53
2023-12-09T10:54:29.184Z,72.67
2023-12-09T10:56:55.818Z,72.34
2023-12-09T10:59:22.493Z,72.72
2023-12-09T11:01:49.468Z,72.12
2023-12-09T11:04:16.542Z,72.02
2023-12-09T11:06:46.215Z,72.56
2023-12-09T11:09:15.822Z,72.78
2023-12-09T11:11:43.218Z,72.28
2023-12-09T11:14:13.012Z,71.50
2023-12-09T11:16:43.876Z,70.67
2023-12-09T11:19:20.634Z,69.78
2023-12-09T11:21:48.094Z,69.92
2023-12-09T11:24:16.861Z,70.08
2023-12-09T11:26:48.316Z,70.57
2023-12-09T11:29:18.956Z,70.28
2023-12-09T11:31:47.771Z,70.50
2023-12-09T11:34:16.503Z,70.32
2023-12-09T11:36:44.662Z,70.43
2023-12-09T11:39:20.031Z,70.82
2023-12-09T11:41:48.419Z,70.39
2023-12-09T11:44:15.531Z,69.89
2023-12-09T11:46:42.699Z,69.73
2023-12-09T11:49:09.977Z,69.57
2023-12-09T11:51:38.395Z,69.62
2023-12-09T11:54:08.563Z,69.50
2023-12-09T11:56:35.984Z,70.03
2023-12-09T11:59:02.586Z,71.18
2023-12-09T12:01:30.795Z,69.86
2023-12-09T12:03:57.719Z,69.68
2023-12-09T12:06:24.915Z,69.25
2023-12-09T12:08:53.251Z,69.58
2023-12-09T12:11:22.789Z,69.18
2023-12-09T12:13:49.852Z,68.71
2023-12-09T12:16:17.284Z,68.46
2023-12-09T12:18:45.828Z,68.73
2023-12-09T12:21:12.674Z,68.62
2023-12-09T12:23:40.776Z,68.43
2023-12-09T12:26:09.145Z,68.41
2023-12-09T12:28:35.768Z,68.91
2023-12-09T12:31:02.461Z,69.02
2023-12-09T12:33:33.393Z,69.22
2023-12-09T12:36:02.272Z,70.07
2023-12-09T12:38:29.286Z,69.89
2023-12-09T12:40:57.485Z,70.55
2023-12-09T12:43:25.380Z,70.67
2023-12-09T12:45:53.811Z,70.23
2023-12-09T12:48:21.435Z,70.16
2023-12-09T12:50:51.005Z,69.82
2023-12-09T12:53:19.221Z,69.86
2023-12-09T12:55:46.449Z,69.65
2023-12-09T12:58:13.167Z,70.19
2023-12-09T13:00:40.594Z,70.61
2023-12-09T13:03:08.615Z,70.83
2023-12-09T13:05:35.961Z,71.09
2023-12-09T13:08:02.814Z,70.92
2023-12-09T13:10:29.524Z,71.20
2023-12-09T13:12:56.313Z,71.03
2023-12-09T13:15:24.026Z,70.46
2023-12-09T13:17:50.914Z,70.67
2023-12-09T13:20:17.874Z,72.43
2023-12-09T13:22:47.078Z,73.03
2023-12-09T13:25:15.403Z,74.71
2023-12-09T13:27:43.680Z,75.03
2023-12-09T13:30:10.893Z,76.32
2023-12-09T13:32:38.665Z,76.59
2023-12-09T13:35:07.103Z,77.02
2023-12-09T13:37:34.669Z,77.10
2023-12-09T13:40:02.007Z,77.03
2023-12-09T13:42:29.455Z,76.79
2023-12-09T13:44:56.365Z,77.07
2023-12-09T13:47:23.888Z,77.77
2023-12-09T13:49:50.789Z,78.26
2023-12-09T13:52:18.232Z,78.72
2023-12-09T13:54:45.318Z,78.74
2023-12-09T13:57:12.074Z,78.71
2023-12-09T13:59:38.805Z,78.44
2023-12-09T14:02:07.715Z,78.13
2023-12-09T14:04:35.228Z,79.05
2023-12-09T14:07:02.116Z,79.41
2023-12-09T14:09:28.921Z,79.37
2023-12-09T14:11:55.600Z,79.16
2023-12-09T14:14:22.423Z,79.91
2023-12-09T14:16:49.344Z,79.95
2023-12-09T14:19:16.427Z,79.71
2023-12-09T14:21:43.131Z,79.40
2023-12-09T14:24:09.993Z,79.13
2023-12-09T14:26:37.040Z,78.76
2023-12-09T14:29:03.701Z,78.99
2023-12-09T14:31:30.368Z,79.17
2023-12-09T14:33:57.718Z,79.12
2023-12-09T14:36:24.590Z,78.67
2023-12-09T14:38:51.776Z,78.52
2023-12-09T14:41:18.426Z,79.44
2023-12-09T14:43:47.118Z,78.98
2023-12-09T14:46:15.172Z,78.46
2023-12-09T14:48:42.957Z,78.00
2023-12-09T14:51:10.163Z,78.02
2023-12-09T14:53:36.821Z,78.17
2023-12-09T14:56:03.769Z,78.94
2023-12-09T14:58:30.938Z,79.37
2023-12-09T15:00:57.820Z,79.20
2023-12-09T15:03:24.723Z,79.70
2023-12-09T15:05:51.381Z,79.32
2023-12-09T15:08:17.984Z,79.41
2023-12-09T15:10:44.678Z,78.99
2023-12-09T15:13:11.250Z,78.15
2023-12-09T15:15:37.918Z,78.31
2023-12-09T15:18:05.804Z,78.15
2023-12-09T15:20:33.068Z,78.14
2023-12-09T15:22:59.889Z,77.61
2023-12-09T15:25:26.710Z,77.53
2023-12-09T15:27:54.187Z,77.37
2023-12-09T15:30:21.426Z,77.25
2023-12-09T15:32:48.765Z,77.01
2023-12-09T15:35:15.673Z,77.37
2023-12-09T15:37:43.597Z,77.46
2023-12-09T15:40:12.208Z,77.75
2023-12-09T15:42:39.226Z,77.97
2023-12-09T15:45:06.684Z,77.62
2023-12-09T15:47:33.608Z,77.32
2023-12-09T15:50:00.527Z,76.78
2023-12-09T15:52:27.455Z,76.84
2023-12-09T15:54:54.617Z,76.56
2023-12-09T15:57:21.738Z,76.85
2023-12-09T15:59:49.382Z,76.72
2023-12-09T16:02:16.097Z,76.74
2023-12-09T16:04:42.889Z,76.24
2023-12-09T16:07:09.504Z,76.06
2023-12-09T16:09:40.969Z,75.75
2023-12-09T16:12:11.596Z,75.30
2023-12-09T16:14:38.385Z,75.61
2023-12-09T16:17:05.268Z,75.93
2023-12-09T16:19:32.180Z,76.15
2023-12-09T16:21:58.809Z,76.01
2023-12-09T16:24:28.680Z,75.98
2023-12-09T16:26:59.422Z,75.64
2023-12-09T16:29:27.374Z,74.90
2023-12-09T16:31:54.079Z,74.39
2023-12-09T16:34:20.851Z,74.42
2023-12-09T16:36:48.422Z,74.05
2023-12-09T16:39:15.248Z,74.36
2023-12-09T16:41:41.898Z,74.36
2023-12-09T16:44:11.514Z,74.69
2023-12-09T16:46:39.320Z,74.97
2023-12-09T16:49:09.062Z,75.40
2023-12-09T16:51:36.019Z,75.43
2023-12-09T16:54:03.223Z,76.64
2023-12-09T16:56:30.086Z,76.54
2023-12-09T16:58:57.929Z,76.60
2023-12-09T17:01:24.919Z,76.85
2023-12-09T17:03:51.754Z,76.67
2023-12-09T17:06:18.551Z,77.17
2023-12-09T17:08:45.515Z,77.27
2023-12-09T17:11:12.164Z,77.08
2023-12-09T17:13:38.908Z,77.30
2023-12-09T17:16:05.834Z,77.27
2023-12-09T17:18:32.560Z,77.35
2023-12-09T17:20:59.291Z,78.10
2023-12-09T17:23:26.013Z,78.17
2023-12-09T17:25:52.645Z,77.62
2023-12-09T17:28:19.952Z,77.25
2023-12-09T17:30:48.250Z,76.78
2023-12-09T17:33:15.095Z,76.03
2023-12-09T17:35:41.919Z,75.56
2023-12-09T17:38:08.682Z,75.79
2023-12-09T17:40:35.383Z,75.56
2023-12-09T17:43:02.059Z,74.94
2023-12-09T17:45:28.760Z,75.20
2023-12-09T17:47:55.423Z,76.28
2023-12-09T17:50:22.727Z,76.37
2023-12-09T17:52:49.530Z,76.79
2023-12-09T17:55:16.162Z,77.18
2023-12-09T17:57:42.912Z,77.34
2023-12-09T18:00:11.548Z,77.26
2023-12-09T18:02:38.703Z,76.99
2023-12-09T18:05:05.810Z,76.84
2023-12-09T18:07:32.661Z,77.01
2023-12-09T18:09:59.536Z,77.12
2023-12-09T18:12:26.492Z,77.27
2023-12-09T18:14:53.266Z,77.25
2023-12-09T18:17:20.245Z,77.53
2023-12-09T18:19:47.858Z,76.74
2023-12-09T18:22:14.672Z,76.52
2023-12-09T18:24:42.041Z,75.66
2023-12-09T18:27:08.857Z,75.87
2023-12-09T18:29:35.505Z,76.14
2023-12-09T18:32:02.093Z,76.23
2023-12-09T18:34:28.851Z,76.33
2023-12-09T18:36:55.481Z,77.14
2023-12-09T18:39:22.658Z,77.83
2023-12-09T18:41:49.295Z,77.59
2023-12-09T18:44:16.532Z,77.77
2023-12-09T18:46:43.346Z,78.31
2023-12-09T18:49:11.108Z,78.40
2023-12-09T18:51:37.870Z,78.93
2023-12-09T18:54:04.693Z,79.24
2023-12-09T18:56:31.874Z,79.66
2023-12-09T18:58:58.505Z,80.29
2023-12-09T19:01:25.368Z,80.38
2023-12-09T19:03:52.813Z,81.15
2023-12-09T19:06:20.261Z,81.90
2023-12-09T19:08:46.887Z,82.08
2023-12-09T19:11:13.520Z,81.43
2023-12-09T19:13:40.127Z,81.69
2023-12-09T19:16:07.901Z,82.15
2023-12-09T19:18:34.782Z,82.06
2023-12-09T19:21:02.498Z,82.43
2023-12-09T19:23:29.128Z,82.21
2023-12-09T19:25:55.984Z,81.80
2023-12-09T19:28:22.596Z,81.53
2023-12-09T19:30:49.385Z,81.67
2023-12-09T19:33:16.211Z,81.41
2023-12-09T19:35:43.070Z,81.29
2023-12-09T19:38:09.707Z,81.32
2023-12-09T19:40:36.314Z,80.74
2023-12-09T19:43:03.049Z,79.65
2023-12-09T19:45:29.699Z,78.97
2023-12-09T19:47:57.412Z,79.66
2023-12-09T19:50:25.112Z,79.96
2023-12-09T19:52:52.252Z,80.37
2023-12-09T19:55:18.936Z,80.04
2023-12-09T19:57:45.833Z,79.54
2023-12-09T20:00:15.983Z,79.66
2023-12-09T20:02:45.462Z,80.21
2023-12-09T20:05:12.506Z,80.08
2023-12-09T20:07:39.345Z,80.82
2023-12-09T20:10:06.642Z,81.51
2023-12-09T20:12:33.286Z,81.97
2023-12-09T20:15:00.073Z,81.38
2023-12-09T20:17:26.762Z,80.92
2023-12-09T20:19:53.551Z,81.21
2023-12-09T20:22:21.476Z,81.02
2023-12-09T20:24:48.270Z,80.60
2023-12-09T20:27:15.043Z,81.12
2023-12-09T20:29:42.025Z,81.10
2023-12-09T20:32:08.630Z,81.30
2023-12-09T20:34:35.427Z,80.83
2023-12-09T20:37:02.565Z,81.09
2023-12-09T20:39:29.348Z,81.22
2023-12-09T20:41:56.011Z,81.35
2023-12-09T20:44:22.610Z,82.16
2023-12-09T20:46:50.267Z,82.46
2023-12-09T20:49:18.616Z,82.26
2023-12-09T20:51:45.991Z,82.39
2023-12-09T20:54:12.980Z,82.90
2023-12-09T20:56:39.894Z,82.66
2023-12-09T20:59:08.251Z,82.79
2023-12-09T21:01:42.872Z,82.47
2023-12-09T21:04:09.568Z,83.48
2023-12-09T21:06:36.908Z,83.51
2023-12-09T21:09:05.351Z,83.65
2023-12-09T21:11:34.940Z,83.79
2023-12-09T21:14:02.272Z,83.44
2023-12-09T21:16:28.868Z,82.91
2023-12-09T21:18:56.185Z,83.89
2023-12-09T21:21:23.107Z,84.61
2023-12-09T21:23:50.243Z,84.53
2023-12-09T21:26:17.188Z,84.28
2023-12-09T21:28:43.780Z,84.19
2023-12-09T21:31:14.100Z,84.59
2023-12-09T21:33:41.318Z,84.36
2023-12-09T21:36:13.031Z,84.93
2023-12-09T21:38:46.162Z,84.97
2023-12-09T21:41:22.622Z,84.54
2023-12-09T21:43:50.261Z,83.37
2023-12-09T21:46:24.049Z,82.88
2023-12-09T21:48:52.370Z,82.97
2023-12-09T21:51:20.044Z,82.91
2023-12-09T21:53:46.725Z,82.67
2023-12-09T21:56:24.414Z,82.25
2023-12-09T21:58:51.849Z,83.15
2023-12-09T22:01:19.610Z,83.33
2023-12-09T22:03:46.823Z,84.31
2023-12-09T22:06:14.262Z,84.59
2023-12-09T22:08:42.601Z,84.85
2023-12-09T22:11:10.294Z,85.34
2023-12-09T22:13:37.262Z,85.59
2023-12-09T22:16:04.081Z,85.72
2023-12-09T22:18:30.849Z,86.06
2023-12-09T22:20:59.460Z,86.13
2023-12-09T22:23:26.137Z,86.12
2023-12-09T22:25:52.781Z,85.86
2023-12-09T22:28:19.407Z,86.00
2023-12-09T22:30:46.388Z,86.10
2023-12-09T22:33:13.142Z,85.42
2023-12-09T22:35:39.861Z,85.60
2023-12-09T22:38:06.435Z,85.25
2023-12-09T22:40:34.682Z,84.83
2023-12-09T22:43:01.719Z,84.83
2023-12-09T22:45:28.322Z,84.95
2023-12-09T22:47:55.149Z,84.68
2023-12-09T22:50:22.824Z,84.44
2023-12-09T22:52:49.438Z,84.08
2023-12-09T22:55:16.106Z,83.85
2023-12-09T22:57:42.916Z,83.59
2023-12-09T23:00:11.300Z,84.95
2023-12-09T23:02:38.016Z,84.86
2023-12-09T23:05:04.928Z,84.98
2023-12-09T23:07:31.544Z,85.20
2023-12-09T23:09:58.187Z,85.11
2023-12-09T23:12:24.801Z,84.79
2023-12-09T23:14:51.546Z,84.97
2023-12-09T23:17:18.175Z,84.37
2023-12-09T23:19:46.296Z,84.04
2023-12-09T23:22:12.946Z,83.77
2023-12-09T23:24:40.292Z,84.09
2023-12-09T23:27:07.169Z,83.92
2023-12-09T23:29:33.920Z,84.14
2023-12-09T23:32:01.054Z,83.65
2023-12-09T23:34:27.833Z,84.04
2023-12-09T23:36:56.388Z,84.04
2023-12-09T23:39:23.258Z,84.28
2023-12-09T23:41:50.714Z,84.01
2023-12-09T23:44:17.295Z,83.52
2023-12-09T23:46:44.953Z,83.37
2023-12-09T23:49:11.606Z,82.44
2023-12-09T23:51:38.553Z,83.39
2023-12-09T23:54:05.327Z,83.06
2023-12-09T23:56:31.980Z,83.12
2023-12-09T23:58:59.321Z,83.56
